createdAt,value
2023-04-18T00:04:09.496Z,100434.53
2023-04-18T00:09:12.367Z,100412.75
2023-04-18T00:14:15.353Z,100443.63
2023-04-18T00:19:19.220Z,100434.75
2023-04-18T00:24:22.543Z,100419.59
2023-04-18T00:29:25.314Z,100437.28
2023-04-18T00:34:29.100Z,100440.56
2023-04-18T00:39:31.830Z,100440.66
2023-04-18T00:44:34.720Z,100447.53
2023-04-18T00:49:37.596Z,100447.63
2023-04-18T00:54:43.725Z,100451.38
2023-04-18T00:59:47.616Z,100463.53
2023-04-18T01:04:50.148Z,100465.13
2023-04-18T01:09:53.609Z,100454.16
2023-04-18T01:14:56.831Z,100452.34
2023-04-18T01:20:02.149Z,100465.28
2023-04-18T01:25:09.676Z,100459.22
2023-04-18T01:30:12.758Z,100444.56
2023-04-18T01:35:15.630Z,100438.38
2023-04-18T01:40:18.468Z,100447.63
2023-04-18T01:45:21.265Z,100453.41
2023-04-18T01:50:24.111Z,100427.88
2023-04-18T01:55:27.040Z,100452.47
2023-04-18T02:00:30.671Z,100450.91
2023-04-18T02:05:33.423Z,100451.09
2023-04-18T02:10:36.165Z,100449.56
2023-04-18T02:15:39.089Z,100460.69
2023-04-18T02:20:41.946Z,100445.41
2023-04-18T02:25:44.658Z,100450.88
2023-04-18T02:30:47.437Z,100444.81
2023-04-18T02:35:50.146Z,100441.88
2023-04-18T02:40:52.933Z,100435.19
2023-04-18T02:45:56.981Z,100427.84
2023-04-18T02:51:06.910Z,100437.22
2023-04-18T02:56:17.168Z,100432.41
2023-04-18T03:01:52.418Z,100433.63
2023-04-18T03:06:59.682Z,100434.72
2023-04-18T03:12:05.052Z,100423.19
2023-04-18T03:17:11.228Z,100420.66
2023-04-18T03:22:17.211Z,100427.34
2023-04-18T03:27:37.720Z,100421.53
2023-04-18T03:32:42.483Z,100422.31
2023-04-18T03:37:45.674Z,100427.59
2023-04-18T03:42:55.079Z,100434.06
2023-04-18T03:47:58.227Z,100434.50
2023-04-18T03:53:01.685Z,100429.22
2023-04-18T03:58:08.580Z,100443.78
2023-04-18T04:03:13.973Z,100435.88
2023-04-18T04:08:16.914Z,100449.53
2023-04-18T04:13:21.107Z,100451.78
2023-04-18T04:18:31.287Z,100453.13
2023-04-18T04:23:36.630Z,100458.38
2023-04-18T04:28:40.501Z,100437.63
2023-04-18T04:33:44.540Z,100451.41
2023-04-18T04:38:52.666Z,100452.66
2023-04-18T04:44:04.621Z,100441.47
2023-04-18T04:49:09.455Z,100448.38
2023-04-18T04:54:12.682Z,100443.81
2023-04-18T04:59:16.400Z,100458.31
2023-04-18T05:04:21.141Z,100452.97
2023-04-18T05:09:24.042Z,100452.63
2023-04-18T05:14:28.059Z,100450.13
2023-04-18T05:19:30.949Z,100447.28
2023-04-18T05:24:33.742Z,100462.97
2023-04-18T05:29:36.492Z,100470.56
2023-04-18T05:34:39.784Z,100481.19
2023-04-18T05:39:42.489Z,100492.44
2023-04-18T05:44:45.249Z,100480.72
2023-04-18T05:49:48.045Z,100472.94
2023-04-18T05:54:51.246Z,100482.59
2023-04-18T05:59:54.626Z,100461.13
2023-04-18T06:04:57.534Z,100473.34
2023-04-18T06:10:00.400Z,100472.59
2023-04-18T06:15:03.981Z,100478.09
2023-04-18T06:20:08.106Z,100486.31
2023-04-18T06:25:11.157Z,100493.69
2023-04-18T06:30:14.454Z,100500.56
2023-04-18T06:35:17.402Z,100524.13
2023-04-18T06:40:20.389Z,100529.25
2023-04-18T06:45:23.412Z,100527.28
2023-04-18T06:50:27.260Z,100531.69
2023-04-18T06:55:30.148Z,100537.31
2023-04-18T07:00:32.887Z,100539.69
2023-04-18T07:05:37.144Z,100561.44
2023-04-18T07:10:39.899Z,100566.53
2023-04-18T07:15:42.828Z,100580.53
2023-04-18T07:20:45.789Z,100575.38
2023-04-18T07:25:49.922Z,100578.44
2023-04-18T07:30:52.685Z,100571.06
2023-04-18T07:35:55.545Z,100571.84
2023-04-18T07:40:59.335Z,100594.91
2023-04-18T07:46:02.358Z,100606.50
2023-04-18T07:51:05.234Z,100605.69
2023-04-18T07:56:08.073Z,100620.59
2023-04-18T08:01:14.364Z,100637.72
2023-04-18T08:06:17.974Z,100630.22
2023-04-18T08:11:20.972Z,100628.09
2023-04-18T08:16:23.853Z,100623.44
2023-04-18T08:21:27.179Z,100638.19
2023-04-18T08:26:30.070Z,100630.13
2023-04-18T08:31:33.141Z,100639.38
2023-04-18T08:36:36.235Z,100645.47
2023-04-18T08:41:39.864Z,100640.31
2023-04-18T08:46:42.602Z,100677.38
2023-04-18T08:51:47.999Z,100682.91
2023-04-18T08:57:16.800Z,100697.38
2023-04-18T09:02:22.433Z,100687.47
2023-04-18T09:07:29.109Z,100698.28
2023-04-18T09:12:33.007Z,100703.72
2023-04-18T09:17:52.809Z,100707.97
2023-04-18T09:22:58.215Z,100718.00
2023-04-18T09:28:05.380Z,100720.84
2023-04-18T09:33:13.095Z,100714.81
2023-04-18T09:38:15.940Z,100728.66
2023-04-18T09:43:22.207Z,100740.53
2023-04-18T09:48:24.923Z,100730.09
2023-04-18T09:53:29.060Z,100758.25
2023-04-18T09:58:33.478Z,100769.66
2023-04-18T10:03:42.670Z,100761.44
2023-04-18T10:08:46.479Z,100781.06
2023-04-18T10:13:50.712Z,100811.75
2023-04-18T10:18:53.209Z,100801.25
2023-04-18T10:23:55.879Z,100813.63
2023-04-18T10:28:59.822Z,100808.00
2023-04-18T10:34:07.224Z,100824.84
2023-04-18T10:39:23.715Z,100826.28
2023-04-18T10:44:27.423Z,100835.59
2023-04-18T10:49:33.918Z,100844.94
2023-04-18T10:54:39.421Z,100851.25
2023-04-18T10:59:43.744Z,100855.56
2023-04-18T11:04:53.056Z,100867.25
2023-04-18T11:09:56.602Z,100865.22
2023-04-18T11:14:59.874Z,100853.94
2023-04-18T11:20:11.850Z,100870.88
2023-04-18T11:25:15.744Z,100880.53
2023-04-18T11:30:18.684Z,100891.09
2023-04-18T11:35:21.526Z,100894.44
2023-04-18T11:40:24.588Z,100896.44
2023-04-18T11:45:27.760Z,100910.81
2023-04-18T11:50:36.586Z,100910.50
2023-04-18T11:55:39.451Z,100912.75
2023-04-18T12:00:42.615Z,100929.16
2023-04-18T12:05:45.845Z,100946.88
2023-04-18T12:10:53.483Z,100940.19
2023-04-18T12:15:57.065Z,100939.25
2023-04-18T12:21:02.354Z,100954.44
2023-04-18T12:26:06.078Z,100958.09
2023-04-18T12:31:09.190Z,100963.22
2023-04-18T12:36:12.165Z,100963.56
2023-04-18T12:41:14.937Z,100974.97
2023-04-18T12:46:17.633Z,100973.91
2023-04-18T12:51:24.335Z,100976.88
2023-04-18T12:56:28.520Z,100994.09
2023-04-18T13:01:31.334Z,101002.50
2023-04-18T13:06:34.171Z,101004.44
2023-04-18T13:11:37.131Z,100988.91
2023-04-18T13:16:41.116Z,101023.63
2023-04-18T13:21:47.781Z,101061.47
2023-04-18T13:26:52.004Z,101079.44
2023-04-18T13:31:54.906Z,101062.06
2023-04-18T13:36:59.090Z,101080.16
2023-04-18T13:42:05.386Z,101069.94
2023-04-18T13:47:08.501Z,101076.63
2023-04-18T13:52:11.315Z,101066.78
2023-04-18T13:57:15.034Z,101085.50
2023-04-18T14:02:18.029Z,101078.63
2023-04-18T14:07:20.837Z,101090.59
2023-04-18T14:12:23.548Z,101090.59
2023-04-18T14:17:26.384Z,101094.34
2023-04-18T14:22:29.120Z,101093.28
2023-04-18T14:27:31.876Z,101085.69
2023-04-18T14:32:35.788Z,101093.28
2023-04-18T14:37:38.398Z,101109.53
2023-04-18T14:42:41.289Z,101100.66
2023-04-18T14:47:44.722Z,101105.81
2023-04-18T14:52:47.784Z,101097.81
2023-04-18T14:57:50.535Z,101100.28
2023-04-18T15:02:54.108Z,101098.84
2023-04-18T15:07:57.144Z,101109.22
2023-04-18T15:12:59.948Z,101115.56
2023-04-18T15:18:03.235Z,101099.41
2023-04-18T15:23:06.161Z,101090.72
2023-04-18T15:28:09.266Z,101114.69
2023-04-18T15:33:13.406Z,101136.47
2023-04-18T15:38:16.507Z,101135.94
2023-04-18T15:43:19.369Z,101140.16
2023-04-18T15:48:22.126Z,101152.19
2023-04-18T15:53:24.948Z,101114.91
2023-04-18T15:58:30.484Z,101154.06
2023-04-18T16:03:33.493Z,101144.56
2023-04-18T16:08:37.358Z,101145.97
2023-04-18T16:13:40.119Z,101157.75
2023-04-18T16:18:42.834Z,101158.78
2023-04-18T16:23:45.725Z,101160.72
2023-04-18T16:28:48.895Z,101169.31
2023-04-18T16:33:53.113Z,101171.66
2023-04-18T16:38:56.014Z,101166.88
2023-04-18T16:43:58.769Z,101171.44
2023-04-18T16:49:02.043Z,101154.88
2023-04-18T16:54:05.531Z,101139.28
2023-04-18T16:59:09.720Z,101170.34
2023-04-18T17:04:12.874Z,101173.41
2023-04-18T17:09:16.154Z,101177.69
2023-04-18T17:14:19.256Z,101167.25
2023-04-18T17:19:22.948Z,101167.47
2023-04-18T17:24:25.690Z,101165.88
2023-04-18T17:29:28.480Z,101175.41
2023-04-18T17:34:31.362Z,101160.56
2023-04-18T17:39:34.239Z,101190.59
2023-04-18T17:44:40.046Z,101162.16
2023-04-18T17:49:43.059Z,101174.19
2023-04-18T17:54:46.010Z,101192.03
2023-04-18T17:59:49.392Z,101201.91
2023-04-18T18:04:52.343Z,101202.97
2023-04-18T18:09:55.391Z,101202.09
2023-04-18T18:14:58.503Z,101206.16
2023-04-18T18:20:01.229Z,101203.69
2023-04-18T18:25:05.725Z,101175.38
2023-04-18T18:30:08.624Z,101208.78
2023-04-18T18:35:11.373Z,101217.44
2023-04-18T18:40:14.367Z,101216.03
2023-04-18T18:45:17.909Z,101223.13
2023-04-18T18:50:20.740Z,101222.56
2023-04-18T18:55:23.731Z,101228.78
2023-04-18T19:00:26.702Z,101224.50
2023-04-18T19:05:29.511Z,101233.00
2023-04-18T19:10:32.331Z,101235.09
2023-04-18T19:15:35.236Z,101221.66
2023-04-18T19:20:40.663Z,101235.63
2023-04-18T19:25:43.689Z,101241.63
2023-04-18T19:30:46.794Z,101223.28
2023-04-18T19:35:49.535Z,101247.84
2023-04-18T19:40:52.475Z,101246.78
2023-04-18T19:45:55.464Z,101234.94
2023-04-18T19:50:58.485Z,101258.25
2023-04-18T19:56:01.258Z,101269.41
2023-04-18T20:01:06.387Z,101279.16
2023-04-18T20:06:09.510Z,101280.06
2023-04-18T20:11:14.456Z,101277.22
2023-04-18T20:16:17.766Z,101274.69
2023-04-18T20:21:20.661Z,101271.09
2023-04-18T20:26:23.537Z,101292.34
2023-04-18T20:31:26.275Z,101287.41
2023-04-18T20:36:31.365Z,101282.16
2023-04-18T20:41:35.088Z,101299.81
2023-04-18T20:46:37.924Z,101288.50
2023-04-18T20:51:40.763Z,101307.78
2023-04-18T20:56:43.659Z,101311.78
2023-04-18T21:01:47.285Z,101288.38
2023-04-18T21:06:50.188Z,101314.50
2023-04-18T21:11:52.961Z,101325.25
2023-04-18T21:16:56.405Z,101324.94
2023-04-18T21:21:59.388Z,101328.38
2023-04-18T21:27:02.884Z,101338.69
2023-04-18T21:32:05.740Z,101350.13
2023-04-18T21:37:08.814Z,101351.03
2023-04-18T21:42:11.604Z,101333.56
2023-04-18T21:47:14.381Z,101356.59
2023-04-18T21:52:17.247Z,101357.50
2023-04-18T21:57:19.861Z,101350.88
2023-04-18T22:02:22.822Z,101363.69
2023-04-18T22:07:25.773Z,101366.28
2023-04-18T22:12:28.801Z,101390.31
2023-04-18T22:17:31.674Z,101387.38
2023-04-18T22:22:34.423Z,101396.09
2023-04-18T22:27:37.263Z,101406.06
2023-04-18T22:32:40.401Z,101408.63
2023-04-18T22:37:43.266Z,101417.75
2023-04-18T22:42:46.062Z,101414.28
2023-04-18T22:47:48.850Z,101422.00
2023-04-18T22:52:51.833Z,101420.19
2023-04-18T22:57:54.676Z,101425.69
2023-04-18T23:02:57.568Z,101425.22
2023-04-18T23:08:00.748Z,101433.25
2023-04-18T23:13:03.773Z,101438.69
2023-04-18T23:18:06.566Z,101445.47
2023-04-18T23:23:09.438Z,101437.78
2023-04-18T23:28:13.915Z,101455.22
2023-04-18T23:33:17.151Z,101452.94
2023-04-18T23:38:20.058Z,101469.22
2023-04-18T23:43:22.843Z,101473.81
2023-04-18T23:48:25.596Z,101478.47
2023-04-18T23:53:28.474Z,101474.84
2023-04-18T23:58:32.059Z,101458.91
